sensor_id;sensor_type;location;lat;lon;timestamp;pressure;altitude;pressure_sealevel;temperature;humidity
64019;BME280;66942;52.138;5.216;2023-07-02T00:01:04;100680.0;;;25.82;46.6
64019;BME280;66942;52.138;5.216;2023-07-02T00:04:17;100684.0;;;25.73;45.89
64019;BME280;66942;52.138;5.216;2023-07-02T00:05:53;100690.0;;;25.74;45.61
64019;BME280;66942;52.138;5.216;2023-07-02T00:07:29;100691.0;;;25.65;45.85
64019;BME280;66942;52.138;5.216;2023-07-02T00:10:43;100691.0;;;25.66;45.14
64019;BME280;66942;52.138;5.216;2023-07-02T00:12:20;100689.0;;;25.52;45.45
64019;BME280;66942;52.138;5.216;2023-07-02T00:13:56;100690.0;;;25.56;44.4
64019;BME280;66942;52.138;5.216;2023-07-02T00:15:32;100698.0;;;25.49;44.46
64019;BME280;66942;52.138;5.216;2023-07-02T00:18:45;100701.0;;;25.38;44.54
64019;BME280;66942;52.138;5.216;2023-07-02T00:20:21;100702.0;;;25.38;43.57
64019;BME280;66942;52.138;5.216;2023-07-02T00:21:57;100709.0;;;25.14;44.45
64019;BME280;66942;52.138;5.216;2023-07-02T00:25:12;100710.0;;;25.2;44.34
64019;BME280;66942;52.138;5.216;2023-07-02T00:26:49;100709.0;;;25.16;43.24
64019;BME280;66942;52.138;5.216;2023-07-02T00:28:26;100707.0;;;25.04;43.8
64019;BME280;66942;52.138;5.216;2023-07-02T00:31:39;100707.0;;;25.0;43.82
64019;BME280;66942;52.138;5.216;2023-07-02T00:33:15;100706.0;;;24.89;43.86
64019;BME280;66942;52.138;5.216;2023-07-02T00:34:51;100710.0;;;24.94;43.9
64019;BME280;66942;52.138;5.216;2023-07-02T00:36:29;100709.0;;;24.76;43.37
64019;BME280;66942;52.138;5.216;2023-07-02T00:39:42;100711.0;;;24.88;43.8
64019;BME280;66942;52.138;5.216;2023-07-02T00:41:18;100710.0;;;24.65;44.22
64019;BME280;66942;52.138;5.216;2023-07-02T00:42:54;100711.0;;;24.78;43.98
64019;BME280;66942;52.138;5.216;2023-07-02T00:46:06;100709.0;;;24.75;44.18
64019;BME280;66942;52.138;5.216;2023-07-02T00:47:42;100713.0;;;24.7;43.59
64019;BME280;66942;52.138;5.216;2023-07-02T00:49:21;100713.0;;;24.69;43.52
64019;BME280;66942;52.138;5.216;2023-07-02T00:52:35;100708.0;;;24.57;43.24
64019;BME280;66942;52.138;5.216;2023-07-02T00:54:11;100715.0;;;24.58;43.25
64019;BME280;66942;52.138;5.216;2023-07-02T00:55:47;100719.0;;;24.54;43.69
64019;BME280;66942;52.138;5.216;2023-07-02T00:57:23;100719.0;;;24.5;43.8
64019;BME280;66942;52.138;5.216;2023-07-02T01:00:35;100723.0;;;24.42;43.7
64019;BME280;66942;52.138;5.216;2023-07-02T01:02:12;100719.0;;;24.42;43.54
64019;BME280;66942;52.138;5.216;2023-07-02T01:03:52;100719.0;;;24.39;43.43
64019;BME280;66942;52.138;5.216;2023-07-02T01:07:05;100720.0;;;24.18;43.37
64019;BME280;66942;52.138;5.216;2023-07-02T01:08:42;100724.0;;;24.17;43.31
64019;BME280;66942;52.138;5.216;2023-07-02T01:10:18;100724.0;;;24.06;42.98
64019;BME280;66942;52.138;5.216;2023-07-02T01:13:35;100723.0;;;23.96;43.18
64019;BME280;66942;52.138;5.216;2023-07-02T01:15:12;100720.0;;;23.94;43.12
64019;BME280;66942;52.138;5.216;2023-07-02T01:16:48;100720.0;;;23.82;43.22
64019;BME280;66942;52.138;5.216;2023-07-02T01:18:25;100723.0;;;23.78;43.24
64019;BME280;66942;52.138;5.216;2023-07-02T01:21:42;100724.0;;;23.82;43.27
64019;BME280;66942;52.138;5.216;2023-07-02T01:23:19;100727.0;;;23.78;43.17
64019;BME280;66942;52.138;5.216;2023-07-02T01:24:56;100725.0;;;23.79;43.05
64019;BME280;66942;52.138;5.216;2023-07-02T01:28:10;100732.0;;;23.57;43.62
64019;BME280;66942;52.138;5.216;2023-07-02T01:29:47;100733.0;;;23.44;44.25
64019;BME280;66942;52.138;5.216;2023-07-02T01:31:26;100735.0;;;23.43;44.02
64019;BME280;66942;52.138;5.216;2023-07-02T01:33:02;100735.0;;;23.28;44.55
64019;BME280;66942;52.138;5.216;2023-07-02T01:36:15;100732.0;;;23.31;43.97
64019;BME280;66942;52.138;5.216;2023-07-02T01:37:51;100730.0;;;23.18;44.34
64019;BME280;66942;52.138;5.216;2023-07-02T01:39:27;100720.0;;;23.08;44.36
64019;BME280;66942;52.138;5.216;2023-07-02T01:42:39;100724.0;;;23.02;44.8
64019;BME280;66942;52.138;5.216;2023-07-02T01:44:16;100723.0;;;22.98;44.85
64019;BME280;66942;52.138;5.216;2023-07-02T01:45:52;100728.0;;;22.97;44.82
64019;BME280;66942;52.138;5.216;2023-07-02T01:49:06;100732.0;;;22.83;45.18
64019;BME280;66942;52.138;5.216;2023-07-02T01:50:42;100733.0;;;22.81;45.27
64019;BME280;66942;52.138;5.216;2023-07-02T01:52:18;100735.0;;;22.85;45.08
64019;BME280;66942;52.138;5.216;2023-07-02T01:53:54;100740.0;;;22.76;45.24
64019;BME280;66942;52.138;5.216;2023-07-02T01:57:06;100740.0;;;22.65;45.51
64019;BME280;66942;52.138;5.216;2023-07-02T01:58:43;100735.0;;;22.7;45.28
64019;BME280;66942;52.138;5.216;2023-07-02T02:00:20;100732.0;;;22.66;45.33
64019;BME280;66942;52.138;5.216;2023-07-02T02:03:34;100735.0;;;22.58;45.5
64019;BME280;66942;52.138;5.216;2023-07-02T02:05:11;100735.0;;;22.62;44.9
64019;BME280;66942;52.138;5.216;2023-07-02T02:06:47;100736.0;;;22.56;44.71
64019;BME280;66942;52.138;5.216;2023-07-02T02:09:59;100736.0;;;22.5;44.88
64019;BME280;66942;52.138;5.216;2023-07-02T02:11:38;100741.0;;;22.47;45.1
64019;BME280;66942;52.138;5.216;2023-07-02T02:13:15;100743.0;;;22.35;45.39
64019;BME280;66942;52.138;5.216;2023-07-02T02:14:51;100736.0;;;22.46;45.08
64019;BME280;66942;52.138;5.216;2023-07-02T02:18:04;100741.0;;;22.29;45.33
64019;BME280;66942;52.138;5.216;2023-07-02T02:19:40;100743.0;;;22.31;45.39
64019;BME280;66942;52.138;5.216;2023-07-02T02:21:17;100742.0;;;22.42;45.28
64019;BME280;66942;52.138;5.216;2023-07-02T02:24:30;100746.0;;;22.34;45.64
64019;BME280;66942;52.138;5.216;2023-07-02T02:26:06;100744.0;;;22.2;45.65
64019;BME280;66942;52.138;5.216;2023-07-02T02:27:42;100747.0;;;22.28;45.55
64019;BME280;66942;52.138;5.216;2023-07-02T02:30:55;100751.0;;;22.15;45.89
64019;BME280;66942;52.138;5.216;2023-07-02T02:32:31;100753.0;;;22.13;45.75
64019;BME280;66942;52.138;5.216;2023-07-02T02:34:07;100753.0;;;22.07;45.68
64019;BME280;66942;52.138;5.216;2023-07-02T02:35:44;100760.0;;;22.15;45.32
64019;BME280;66942;52.138;5.216;2023-07-02T02:38:56;100756.0;;;22.15;45.39
64019;BME280;66942;52.138;5.216;2023-07-02T02:40:32;100755.0;;;22.07;45.65
64019;BME280;66942;52.138;5.216;2023-07-02T02:42:08;100748.0;;;21.99;45.86
64019;BME280;66942;52.138;5.216;2023-07-02T02:45:22;100755.0;;;22.01;45.73
64019;BME280;66942;52.138;5.216;2023-07-02T02:46:58;100757.0;;;21.99;45.84
64019;BME280;66942;52.138;5.216;2023-07-02T02:48:34;100761.0;;;21.93;45.93
64019;BME280;66942;52.138;5.216;2023-07-02T02:51:49;100763.0;;;21.95;46.15
64019;BME280;66942;52.138;5.216;2023-07-02T02:53:25;100766.0;;;21.93;46.32
64019;BME280;66942;52.138;5.216;2023-07-02T02:55:01;100769.0;;;21.91;46.54
64019;BME280;66942;52.138;5.216;2023-07-02T02:56:38;100765.0;;;21.79;46.68
64019;BME280;66942;52.138;5.216;2023-07-02T02:59:51;100765.0;;;21.93;46.4
64019;BME280;66942;52.138;5.216;2023-07-02T03:01:28;100768.0;;;21.84;46.63
64019;BME280;66942;52.138;5.216;2023-07-02T03:03:04;100771.0;;;21.84;46.7
64019;BME280;66942;52.138;5.216;2023-07-02T03:06:16;100777.0;;;21.83;46.29
64019;BME280;66942;52.138;5.216;2023-07-02T03:07:53;100784.0;;;21.81;46.25
64019;BME280;66942;52.138;5.216;2023-07-02T03:09:29;100782.0;;;21.69;46.4
64019;BME280;66942;52.138;5.216;2023-07-02T03:12:43;100785.0;;;21.74;46.3
64019;BME280;66942;52.138;5.216;2023-07-02T03:14:19;100780.0;;;21.65;46.5
64019;BME280;66942;52.138;5.216;2023-07-02T03:15:55;100784.0;;;21.63;46.45
64019;BME280;66942;52.138;5.216;2023-07-02T03:17:31;100786.0;;;21.68;46.4
64019;BME280;66942;52.138;5.216;2023-07-02T03:20:44;100786.0;;;21.59;46.66
64019;BME280;66942;52.138;5.216;2023-07-02T03:22:21;100783.0;;;21.59;46.82
64019;BME280;66942;52.138;5.216;2023-07-02T03:23:57;100784.0;;;21.56;46.72
64019;BME280;66942;52.138;5.216;2023-07-02T03:27:09;100783.0;;;21.61;46.48
64019;BME280;66942;52.138;5.216;2023-07-02T03:28:45;100781.0;;;21.54;46.6
64019;BME280;66942;52.138;5.216;2023-07-02T03:30:22;100782.0;;;21.51;46.64
64019;BME280;66942;52.138;5.216;2023-07-02T03:33:35;100780.0;;;21.48;46.73
64019;BME280;66942;52.138;5.216;2023-07-02T03:35:11;100776.0;;;21.47;46.98
64019;BME280;66942;52.138;5.216;2023-07-02T03:36:48;100778.0;;;21.46;47.09
64019;BME280;66942;52.138;5.216;2023-07-02T03:40:00;100775.0;;;21.44;47.1
64019;BME280;66942;52.138;5.216;2023-07-02T03:41:36;100778.0;;;21.5;46.8
64019;BME280;66942;52.138;5.216;2023-07-02T03:43:12;100783.0;;;21.54;46.87
64019;BME280;66942;52.138;5.216;2023-07-02T03:44:49;100786.0;;;21.39;47.34
64019;BME280;66942;52.138;5.216;2023-07-02T03:48:02;100792.0;;;21.47;47.32
64019;BME280;66942;52.138;5.216;2023-07-02T03:49:39;100794.0;;;21.44;47.38
64019;BME280;66942;52.138;5.216;2023-07-02T03:51:16;100794.0;;;21.54;47.15
64019;BME280;66942;52.138;5.216;2023-07-02T03:54:27;100796.0;;;21.51;47.28
64019;BME280;66942;52.138;5.216;2023-07-02T03:56:04;100796.0;;;21.49;47.31
64019;BME280;66942;52.138;5.216;2023-07-02T03:57:40;100795.0;;;21.37;47.65
64019;BME280;66942;52.138;5.216;2023-07-02T04:00:52;100796.0;;;21.43;47.32
64019;BME280;66942;52.138;5.216;2023-07-02T04:02:28;100796.0;;;21.37;47.52
64019;BME280;66942;52.138;5.216;2023-07-02T04:04:04;100808.0;;;21.48;47.25
64019;BME280;66942;52.138;5.216;2023-07-02T04:05:40;100812.0;;;21.49;47.27
64019;BME280;66942;52.138;5.216;2023-07-02T04:08:53;100809.0;;;21.4;47.71
64019;BME280;66942;52.138;5.216;2023-07-02T04:10:29;100809.0;;;21.54;47.34
64019;BME280;66942;52.138;5.216;2023-07-02T04:12:07;100813.0;;;21.51;47.4
64019;BME280;66942;52.138;5.216;2023-07-02T04:15:19;100820.0;;;21.46;47.62
64019;BME280;66942;52.138;5.216;2023-07-02T04:16:55;100820.0;;;21.52;47.63
64019;BME280;66942;52.138;5.216;2023-07-02T04:18:33;100825.0;;;21.58;47.61
64019;BME280;66942;52.138;5.216;2023-07-02T04:21:47;100818.0;;;21.65;47.6
64019;BME280;66942;52.138;5.216;2023-07-02T04:23:23;100822.0;;;21.56;47.83
64019;BME280;66942;52.138;5.216;2023-07-02T04:24:59;100820.0;;;21.61;47.97
64019;BME280;66942;52.138;5.216;2023-07-02T04:26:36;100820.0;;;21.73;47.83
64019;BME280;66942;52.138;5.216;2023-07-02T04:29:49;100824.0;;;21.72;47.74
64019;BME280;66942;52.138;5.216;2023-07-02T04:31:25;100828.0;;;21.81;47.73
64019;BME280;66942;52.138;5.216;2023-07-02T04:33:02;100826.0;;;21.72;48.07
64019;BME280;66942;52.138;5.216;2023-07-02T04:36:15;100828.0;;;21.83;47.72
64019;BME280;66942;52.138;5.216;2023-07-02T04:37:51;100828.0;;;21.9;47.45
64019;BME280;66942;52.138;5.216;2023-07-02T04:39:28;100834.0;;;22.12;47.09
64019;BME280;66942;52.138;5.216;2023-07-02T04:42:42;100836.0;;;22.04;47.66
64019;BME280;66942;52.138;5.216;2023-07-02T04:44:18;100839.0;;;22.08;47.7
64019;BME280;66942;52.138;5.216;2023-07-02T04:45:54;100828.0;;;22.05;47.58
64019;BME280;66942;52.138;5.216;2023-07-02T04:47:31;100830.0;;;22.21;47.22
64019;BME280;66942;52.138;5.216;2023-07-02T04:50:45;100833.0;;;22.23;47.33
64019;BME280;66942;52.138;5.216;2023-07-02T04:52:22;100836.0;;;22.27;47.39
64019;BME280;66942;52.138;5.216;2023-07-02T04:53:59;100843.0;;;22.56;46.67
64019;BME280;66942;52.138;5.216;2023-07-02T04:57:11;100839.0;;;22.48;46.82
64019;BME280;66942;52.138;5.216;2023-07-02T04:58:47;100846.0;;;22.55;46.53
64019;BME280;66942;52.138;5.216;2023-07-02T05:00:23;100848.0;;;22.62;46.45
64019;BME280;66942;52.138;5.216;2023-07-02T05:03:37;100842.0;;;22.68;46.1
64019;BME280;66942;52.138;5.216;2023-07-02T05:05:13;100841.0;;;22.75;46.25
64019;BME280;66942;52.138;5.216;2023-07-02T05:06:50;100842.0;;;22.85;46.0
64019;BME280;66942;52.138;5.216;2023-07-02T05:08:26;100843.0;;;22.96;45.65
64019;BME280;66942;52.138;5.216;2023-07-02T05:11:39;100841.0;;;23.08;45.47
64019;BME280;66942;52.138;5.216;2023-07-02T05:13:15;100847.0;;;23.21;45.14
64019;BME280;66942;52.138;5.216;2023-07-02T05:14:52;100849.0;;;23.29;45.03
64019;BME280;66942;52.138;5.216;2023-07-02T05:18:05;100851.0;;;23.32;45.06
64019;BME280;66942;52.138;5.216;2023-07-02T05:19:42;100847.0;;;23.5;44.53
64019;BME280;66942;52.138;5.216;2023-07-02T05:21:22;100844.0;;;23.59;44.53
64019;BME280;66942;52.138;5.216;2023-07-02T05:24:35;100847.0;;;23.92;43.12
64019;BME280;66942;52.138;5.216;2023-07-02T05:26:11;100847.0;;;23.88;43.34
64019;BME280;66942;52.138;5.216;2023-07-02T05:27:47;100849.0;;;24.05;42.18
64019;BME280;66942;52.138;5.216;2023-07-02T05:29:24;100852.0;;;24.27;42.54
64019;BME280;66942;52.138;5.216;2023-07-02T05:32:37;100860.0;;;24.5;42.2
64019;BME280;66942;52.138;5.216;2023-07-02T05:34:13;100853.0;;;24.65;41.0
64019;BME280;66942;52.138;5.216;2023-07-02T05:35:50;100855.0;;;24.82;40.78
64019;BME280;66942;52.138;5.216;2023-07-02T05:39:03;100858.0;;;24.86;40.19
64019;BME280;66942;52.138;5.216;2023-07-02T05:40:40;100862.0;;;25.02;40.49
64019;BME280;66942;52.138;5.216;2023-07-02T05:42:16;100866.0;;;25.11;40.07
64019;BME280;66942;52.138;5.216;2023-07-02T05:45:29;100869.0;;;25.27;39.64
64019;BME280;66942;52.138;5.216;2023-07-02T05:47:06;100868.0;;;25.26;39.72
64019;BME280;66942;52.138;5.216;2023-07-02T05:48:42;100862.0;;;25.38;38.68
64019;BME280;66942;52.138;5.216;2023-07-02T05:50:20;100867.0;;;25.36;39.28
64019;BME280;66942;52.138;5.216;2023-07-02T05:53:32;100869.0;;;25.49;39.49
64019;BME280;66942;52.138;5.216;2023-07-02T05:55:08;100870.0;;;25.59;39.62
64019;BME280;66942;52.138;5.216;2023-07-02T05:56:44;100873.0;;;25.75;39.06
64019;BME280;66942;52.138;5.216;2023-07-02T05:59:59;100876.0;;;25.69;37.74
64019;BME280;66942;52.138;5.216;2023-07-02T06:01:36;100877.0;;;25.79;38.21
64019;BME280;66942;52.138;5.216;2023-07-02T06:03:12;100883.0;;;25.98;38.44
64019;BME280;66942;52.138;5.216;2023-07-02T06:06:25;100881.0;;;25.88;37.86
64019;BME280;66942;52.138;5.216;2023-07-02T06:08:03;100880.0;;;25.91;37.43
64019;BME280;66942;52.138;5.216;2023-07-02T06:09:39;100881.0;;;25.94;38.71
64019;BME280;66942;52.138;5.216;2023-07-02T06:11:16;100877.0;;;26.0;37.64
64019;BME280;66942;52.138;5.216;2023-07-02T06:14:29;100887.0;;;26.14;37.67
64019;BME280;66942;52.138;5.216;2023-07-02T06:16:05;100889.0;;;25.9;36.74
64019;BME280;66942;52.138;5.216;2023-07-02T06:17:42;100893.0;;;25.94;36.74
64019;BME280;66942;52.138;5.216;2023-07-02T06:20:55;100885.0;;;25.96;36.96
64019;BME280;66942;52.138;5.216;2023-07-02T06:22:32;100896.0;;;26.2;36.03
64019;BME280;66942;52.138;5.216;2023-07-02T06:24:08;100892.0;;;26.3;36.46
64019;BME280;66942;52.138;5.216;2023-07-02T06:27:20;100891.0;;;26.38;36.62
64019;BME280;66942;52.138;5.216;2023-07-02T06:28:58;100893.0;;;26.33;36.25
64019;BME280;66942;52.138;5.216;2023-07-02T06:30:34;100895.0;;;26.13;36.31
64019;BME280;66942;52.138;5.216;2023-07-02T06:32:10;100900.0;;;25.62;36.11
64019;BME280;66942;52.138;5.216;2023-07-02T06:35:22;100895.0;;;26.09;35.89
64019;BME280;66942;52.138;5.216;2023-07-02T06:36:59;100898.0;;;26.05;36.17
64019;BME280;66942;52.138;5.216;2023-07-02T06:38:36;100900.0;;;26.18;36.99
64019;BME280;66942;52.138;5.216;2023-07-02T06:41:49;100902.0;;;25.73;36.06
64019;BME280;66942;52.138;5.216;2023-07-02T06:43:25;100908.0;;;25.67;36.89
64019;BME280;66942;52.138;5.216;2023-07-02T06:45:02;100913.0;;;25.46;37.06
64019;BME280;66942;52.138;5.216;2023-07-02T06:48:15;100910.0;;;25.32;36.49
64019;BME280;66942;52.138;5.216;2023-07-02T06:49:52;100914.0;;;25.86;36.33
64019;BME280;66942;52.138;5.216;2023-07-02T06:51:29;100916.0;;;26.01;36.46
64019;BME280;66942;52.138;5.216;2023-07-02T06:53:06;100920.0;;;26.17;36.65
64019;BME280;66942;52.138;5.216;2023-07-02T06:56:19;100922.0;;;26.24;36.18
64019;BME280;66942;52.138;5.216;2023-07-02T06:57:55;100926.0;;;26.41;36.36
64019;BME280;66942;52.138;5.216;2023-07-02T06:59:31;100925.0;;;26.31;35.78
64019;BME280;66942;52.138;5.216;2023-07-02T07:02:43;100930.0;;;26.22;35.29
64019;BME280;66942;52.138;5.216;2023-07-02T07:04:20;100934.0;;;26.37;35.04
64019;BME280;66942;52.138;5.216;2023-07-02T07:05:57;100937.0;;;26.4;35.51
64019;BME280;66942;52.138;5.216;2023-07-02T07:09:10;100940.0;;;26.46;34.96
64019;BME280;66942;52.138;5.216;2023-07-02T07:10:47;100939.0;;;26.46;34.86
64019;BME280;66942;52.138;5.216;2023-07-02T07:12:25;100943.0;;;26.55;34.79
64019;BME280;66942;52.138;5.216;2023-07-02T07:14:01;100944.0;;;26.52;34.06
64019;BME280;66942;52.138;5.216;2023-07-02T07:17:16;100945.0;;;26.35;32.67
64019;BME280;66942;52.138;5.216;2023-07-02T07:18:53;100948.0;;;26.59;32.74
64019;BME280;66942;52.138;5.216;2023-07-02T07:20:30;100953.0;;;26.81;32.32
64019;BME280;66942;52.138;5.216;2023-07-02T07:23:44;100955.0;;;26.41;32.44
64019;BME280;66942;52.138;5.216;2023-07-02T07:25:21;100962.0;;;26.77;32.96
64019;BME280;66942;52.138;5.216;2023-07-02T07:26:58;100967.0;;;26.89;32.85
64019;BME280;66942;52.138;5.216;2023-07-02T07:28:35;100968.0;;;27.16;32.71
64019;BME280;66942;52.138;5.216;2023-07-02T07:31:49;100962.0;;;27.33;32.28
64019;BME280;66942;52.138;5.216;2023-07-02T07:33:25;100966.0;;;26.82;32.64
64019;BME280;66942;52.138;5.216;2023-07-02T07:35:01;100973.0;;;27.14;31.69
64019;BME280;66942;52.138;5.216;2023-07-02T07:38:15;100976.0;;;27.45;31.37
64019;BME280;66942;52.138;5.216;2023-07-02T07:39:52;100971.0;;;27.58;31.68
64019;BME280;66942;52.138;5.216;2023-07-02T07:41:29;100978.0;;;27.34;31.57
64019;BME280;66942;52.138;5.216;2023-07-02T07:44:43;100975.0;;;27.85;31.5
64019;BME280;66942;52.138;5.216;2023-07-02T07:46:20;100980.0;;;27.48;30.21
64019;BME280;66942;52.138;5.216;2023-07-02T07:47:57;100976.0;;;27.64;30.69
64019;BME280;66942;52.138;5.216;2023-07-02T07:49:33;100978.0;;;27.76;30.53
64019;BME280;66942;52.138;5.216;2023-07-02T07:52:45;100982.0;;;28.06;30.39
64019;BME280;66942;52.138;5.216;2023-07-02T07:54:23;100978.0;;;28.28;30.13
64019;BME280;66942;52.138;5.216;2023-07-02T07:55:59;100986.0;;;28.19;29.45
64019;BME280;66942;52.138;5.216;2023-07-02T07:59:14;100983.0;;;28.37;29.63
64019;BME280;66942;52.138;5.216;2023-07-02T08:00:50;100986.0;;;27.81;30.43
64019;BME280;66942;52.138;5.216;2023-07-02T08:02:26;100986.0;;;28.12;30.29
64019;BME280;66942;52.138;5.216;2023-07-02T08:05:40;100988.0;;;28.14;30.05
64019;BME280;66942;52.138;5.216;2023-07-02T08:07:16;100983.0;;;28.23;30.75
64019;BME280;66942;52.138;5.216;2023-07-02T08:08:52;100984.0;;;28.32;30.21
64019;BME280;66942;52.138;5.216;2023-07-02T08:10:30;100988.0;;;28.18;30.45
64019;BME280;66942;52.138;5.216;2023-07-02T08:13:43;100986.0;;;28.39;30.09
64019;BME280;66942;52.138;5.216;2023-07-02T08:15:21;100989.0;;;28.61;30.55
64019;BME280;66942;52.138;5.216;2023-07-02T08:16:58;100994.0;;;28.86;30.07
64019;BME280;66942;52.138;5.216;2023-07-02T08:20:12;100984.0;;;28.54;27.53
64019;BME280;66942;52.138;5.216;2023-07-02T08:21:49;100992.0;;;28.76;27.81
64019;BME280;66942;52.138;5.216;2023-07-02T08:23:26;101000.0;;;29.11;28.28
64019;BME280;66942;52.138;5.216;2023-07-02T08:25:04;100998.0;;;29.18;28.22
64019;BME280;66942;52.138;5.216;2023-07-02T08:28:17;101003.0;;;29.32;27.95
64019;BME280;66942;52.138;5.216;2023-07-02T08:29:53;100997.0;;;29.37;28.06
64019;BME280;66942;52.138;5.216;2023-07-02T08:31:30;100996.0;;;28.92;27.25
64019;BME280;66942;52.138;5.216;2023-07-02T08:34:44;100996.0;;;29.0;27.24
64019;BME280;66942;52.138;5.216;2023-07-02T08:36:21;100993.0;;;29.35;28.13
64019;BME280;66942;52.138;5.216;2023-07-02T08:37:58;101001.0;;;29.45;26.53
64019;BME280;66942;52.138;5.216;2023-07-02T08:41:13;101003.0;;;29.48;26.96
64019;BME280;66942;52.138;5.216;2023-07-02T08:42:49;101010.0;;;29.53;26.9
64019;BME280;66942;52.138;5.216;2023-07-02T08:44:26;101008.0;;;29.59;27.24
64019;BME280;66942;52.138;5.216;2023-07-02T08:46:02;101006.0;;;29.35;26.83
64019;BME280;66942;52.138;5.216;2023-07-02T08:49:15;101002.0;;;28.91;27.4
64019;BME280;66942;52.138;5.216;2023-07-02T08:50:52;101009.0;;;29.35;27.98
64019;BME280;66942;52.138;5.216;2023-07-02T08:52:28;101013.0;;;29.44;27.51
64019;BME280;66942;52.138;5.216;2023-07-02T08:55:42;101021.0;;;29.29;27.84
64019;BME280;66942;52.138;5.216;2023-07-02T08:57:19;101018.0;;;29.33;28.1
64019;BME280;66942;52.138;5.216;2023-07-02T08:58:56;101013.0;;;29.35;27.6
64019;BME280;66942;52.138;5.216;2023-07-02T09:02:09;101016.0;;;29.13;27.33
64019;BME280;66942;52.138;5.216;2023-07-02T09:03:45;101020.0;;;29.07;27.92
64019;BME280;66942;52.138;5.216;2023-07-02T09:05:22;101015.0;;;29.26;28.54
64019;BME280;66942;52.138;5.216;2023-07-02T09:07:07;101016.0;;;29.21;28.1
64019;BME280;66942;52.138;5.216;2023-07-02T09:10:28;101023.0;;;29.41;28.39
64019;BME280;66942;52.138;5.216;2023-07-02T09:12:07;101022.0;;;29.18;28.49
64019;BME280;66942;52.138;5.216;2023-07-02T09:13:45;101018.0;;;29.18;27.9
64019;BME280;66942;52.138;5.216;2023-07-02T09:15:24;101019.0;;;29.19;27.26
64019;BME280;66942;52.138;5.216;2023-07-02T09:18:40;101018.0;;;28.61;27.01
64019;BME280;66942;52.138;5.216;2023-07-02T09:20:17;101012.0;;;28.97;27.22
64019;BME280;66942;52.138;5.216;2023-07-02T09:21:53;101016.0;;;28.93;26.65
64019;BME280;66942;52.138;5.216;2023-07-02T09:25:11;101016.0;;;29.11;26.18
64019;BME280;66942;52.138;5.216;2023-07-02T09:26:49;101018.0;;;29.23;26.87
64019;BME280;66942;52.138;5.216;2023-07-02T09:28:26;101017.0;;;29.16;25.33
64019;BME280;66942;52.138;5.216;2023-07-02T09:30:06;101017.0;;;29.18;25.75
64019;BME280;66942;52.138;5.216;2023-07-02T09:33:24;101016.0;;;29.16;25.74
64019;BME280;66942;52.138;5.216;2023-07-02T09:35:01;101026.0;;;28.77;26.33
64019;BME280;66942;52.138;5.216;2023-07-02T09:36:37;101025.0;;;28.68;25.82
64019;BME280;66942;52.138;5.216;2023-07-02T09:39:51;101024.0;;;28.74;26.18
64019;BME280;66942;52.138;5.216;2023-07-02T09:41:29;101024.0;;;28.88;25.9
64019;BME280;66942;52.138;5.216;2023-07-02T09:43:06;101020.0;;;28.8;25.69
64019;BME280;66942;52.138;5.216;2023-07-02T09:44:42;101017.0;;;28.83;25.73
64019;BME280;66942;52.138;5.216;2023-07-02T09:47:57;101019.0;;;28.73;25.54
64019;BME280;66942;52.138;5.216;2023-07-02T09:49:35;101020.0;;;29.27;25.52
64019;BME280;66942;52.138;5.216;2023-07-02T09:51:13;101017.0;;;29.14;25.63
64019;BME280;66942;52.138;5.216;2023-07-02T09:54:27;101030.0;;;28.9;26.38
64019;BME280;66942;52.138;5.216;2023-07-02T09:56:06;101022.0;;;28.78;26.5
64019;BME280;66942;52.138;5.216;2023-07-02T09:57:44;101011.0;;;28.84;25.48
64019;BME280;66942;52.138;5.216;2023-07-02T09:59:20;101018.0;;;29.15;25.11
64019;BME280;66942;52.138;5.216;2023-07-02T10:02:35;101014.0;;;29.34;24.81
64019;BME280;66942;52.138;5.216;2023-07-02T10:04:13;101018.0;;;29.37;25.37
64019;BME280;66942;52.138;5.216;2023-07-02T10:05:50;101019.0;;;29.75;24.79
64019;BME280;66942;52.138;5.216;2023-07-02T10:09:04;101021.0;;;30.05;25.87
64019;BME280;66942;52.138;5.216;2023-07-02T10:10:42;101017.0;;;30.19;23.86
64019;BME280;66942;52.138;5.216;2023-07-02T10:12:20;101022.0;;;30.27;23.08
64019;BME280;66942;52.138;5.216;2023-07-02T10:13:57;101020.0;;;30.3;22.3
64019;BME280;66942;52.138;5.216;2023-07-02T10:17:11;101027.0;;;29.67;22.88
64019;BME280;66942;52.138;5.216;2023-07-02T10:19:15;101023.0;;;30.58;22.32
64019;BME280;66942;52.138;5.216;2023-07-02T10:20:52;101026.0;;;30.45;22.12
64019;BME280;66942;52.138;5.216;2023-07-02T10:22:28;101028.0;;;30.36;23.42
64019;BME280;66942;52.138;5.216;2023-07-02T10:25:46;101039.0;;;30.45;22.57
64019;BME280;66942;52.138;5.216;2023-07-02T10:27:40;101034.0;;;30.57;22.36
64019;BME280;66942;52.138;5.216;2023-07-02T10:29:18;101036.0;;;30.91;22.85
64019;BME280;66942;52.138;5.216;2023-07-02T10:30:56;101038.0;;;30.96;22.34
64019;BME280;66942;52.138;5.216;2023-07-02T10:34:10;101047.0;;;30.76;23.35
64019;BME280;66942;52.138;5.216;2023-07-02T10:35:49;101045.0;;;30.2;23.86
64019;BME280;66942;52.138;5.216;2023-07-02T10:37:25;101053.0;;;30.34;24.34
64019;BME280;66942;52.138;5.216;2023-07-02T10:39:02;101045.0;;;30.34;25.24
64019;BME280;66942;52.138;5.216;2023-07-02T10:42:16;101050.0;;;30.21;25.48
64019;BME280;66942;52.138;5.216;2023-07-02T10:43:53;101044.0;;;30.15;24.21
64019;BME280;66942;52.138;5.216;2023-07-02T10:45:31;101059.0;;;30.3;25.05
64019;BME280;66942;52.138;5.216;2023-07-02T10:48:51;101060.0;;;29.73;23.62
64019;BME280;66942;52.138;5.216;2023-07-02T10:50:31;101068.0;;;29.63;23.85
64019;BME280;66942;52.138;5.216;2023-07-02T10:52:07;101065.0;;;30.02;24.1
64019;BME280;66942;52.138;5.216;2023-07-02T10:53:44;101062.0;;;29.85;23.29
64019;BME280;66942;52.138;5.216;2023-07-02T10:56:58;101065.0;;;29.43;22.87
64019;BME280;66942;52.138;5.216;2023-07-02T10:58:41;101063.0;;;28.78;23.38
64019;BME280;66942;52.138;5.216;2023-07-02T11:00:19;101059.0;;;28.85;23.85
64019;BME280;66942;52.138;5.216;2023-07-02T11:03:32;101070.0;;;29.21;23.64
64019;BME280;66942;52.138;5.216;2023-07-02T11:05:10;101071.0;;;29.21;23.57
64019;BME280;66942;52.138;5.216;2023-07-02T11:06:47;101067.0;;;29.33;24.34